Waf_motion — 4RBK — position and weather

sailwx.info

Track history (hours):
 
Tides and Currents Weather Stations Pressure Air Temp Water Temp Dewpoint Dewpoint Depression Visibility Wind Speed Wind Dir Waves Ship Positions

Waf_motion

Last reported at 2017-Jan-20 18:29 UTC. Time now 2017-Jan-24 23:26 UTC.
Position N 28°36' W 013°14'.

Length 140 m; draft 7.5 m.

Type: Ship (hazmat cat A). MMSI: 417222324.

Date/timePositionNaut miles runAvg speedWind from/ knotsBaromVisibWave heightAir tempDewpointWater temp
2017-Jan-20 18:29N 28°36' W 013°14'1414.2
2017-Jan-20 17:30N 28°50' W 013°10'1516.0
2017-Jan-20 16:32N 29°04' W 013°04'  
2017-Jan-16 13:10N 49°46' W 003°32'913.9
2017-Jan-16 12:33N 49°51' W 003°21'5911.6
2017-Jan-16 07:27N 50°10' W 001°54'1314.2
2017-Jan-16 06:33N 50°14' W 001°35'4916.2
2017-Jan-16 03:33N 50°27' W 000°22'1514.9
2017-Jan-16 02:33N 50°30' E 000°01'1413.9
2017-Jan-16 01:33N 50°34' E 000°22'1312.8
2017-Jan-16 00:33N 50°38' E 000°41'1312.7
2017-Jan-15 23:33N 50°45' E 000°58'1413.8
2017-Jan-15 22:33N 50°54' E 001°15'1716.5
2017-Jan-15 21:33N 51°05' E 001°34'1616.1
2017-Jan-15 20:33N 51°17' E 001°51'1211.6
2017-Jan-15 19:33N 51°23' E 002°07'1313.0
2017-Jan-15 18:31N 51°23' E 002°28'1212.4
2017-Jan-15 17:33N 51°22' E 002°47'1212.2
2017-Jan-15 16:33N 51°24' E 003°07'1312.6
2017-Jan-15 15:33N 51°25' E 003°27'10 9.8
2017-Jan-15 14:33N 51°25' E 003°43'9 8.9
2017-Jan-15 13:33N 51°23' E 003°57'7 6.4
2017-Jan-15 12:32N 51°22' E 004°07'8 7.9
2017-Jan-15 11:33N 51°18' E 004°17'2 2.2
2017-Jan-15 10:33N 51°17' E 004°20'1 0.9
2017-Jan-15 09:31N 51°16' E 004°21'0 0.0
2017-Jan-15 08:31N 51°16' E 004°21'0 0.0
2017-Jan-15 07:31N 51°16' E 004°21'0 0.0
2017-Jan-15 06:28N 51°16' E 004°21'0 0.0
2017-Jan-15 05:31N 51°16' E 004°21'0 0.0
2017-Jan-15 04:31N 51°16' E 004°21'0 0.0
2017-Jan-15 03:31N 51°16' E 004°21'0 0.0
2017-Jan-15 02:31N 51°16' E 004°21'0 0.0
2017-Jan-15 01:31N 51°16' E 004°21'0 0.0
2017-Jan-15 00:31N 51°16' E 004°21'0 0.0
2017-Jan-14 23:31N 51°16' E 004°21'0 0.0
2017-Jan-14 22:31N 51°16' E 004°21'0 0.0
2017-Jan-14 21:31N 51°16' E 004°21'0 0.0
2017-Jan-14 20:31N 51°16' E 004°21'0 0.0
2017-Jan-14 19:31N 51°16' E 004°21'0 0.0
2017-Jan-14 18:31N 51°16' E 004°21'0 0.0
2017-Jan-14 17:31N 51°16' E 004°21'0 0.0
2017-Jan-14 16:31N 51°16' E 004°21'0 0.0
2017-Jan-14 15:31N 51°16' E 004°21'0 0.0
2017-Jan-14 14:31N 51°16' E 004°21'0 0.0
2017-Jan-14 13:31N 51°16' E 004°21'0 0.0
2017-Jan-14 12:31N 51°16' E 004°21'0 0.0
2017-Jan-14 11:31N 51°16' E 004°21'0 0.0
2017-Jan-14 10:31N 51°16' E 004°21'0 0.0
2017-Jan-14 09:31N 51°16' E 004°21'0 0.0
2017-Jan-14 08:31N 51°16' E 004°21'0 0.0
2017-Jan-14 07:31N 51°16' E 004°21'0 0.0
2017-Jan-14 06:31N 51°16' E 004°21'0 0.0
2017-Jan-14 05:28N 51°16' E 004°21'0 0.0
2017-Jan-14 04:31N 51°16' E 004°21'0 0.0
2017-Jan-14 03:31N 51°16' E 004°21'0 0.0
2017-Jan-13 23:31N 51°16' E 004°21'0 0.0
2017-Jan-13 22:31N 51°16' E 004°21'0 0.0
2017-Jan-13 21:31N 51°16' E 004°21'0 0.0
2017-Jan-13 20:31N 51°16' E 004°21'0 0.0
2017-Jan-13 19:28N 51°16' E 004°21'0 0.2
2017-Jan-13 18:31N 51°16' E 004°21'1 1.0
2017-Jan-13 17:33N 51°16' E 004°22'2 1.9
2017-Jan-13 16:33N 51°15' E 004°24'0 0.0
2017-Jan-13 15:33N 51°15' E 004°24'0 0.0
2017-Jan-13 14:33N 51°15' E 004°24'0 0.0
2017-Jan-13 13:33N 51°15' E 004°24'0 0.0
2017-Jan-13 12:33N 51°15' E 004°24'0 0.0
2017-Jan-13 11:33N 51°15' E 004°24'0 0.0
2017-Jan-13 10:33N 51°15' E 004°24'0 0.0
2017-Jan-13 09:33N 51°15' E 004°24'0 0.0
2017-Jan-13 08:33N 51°15' E 004°24'0 0.0
2017-Jan-13 07:33N 51°15' E 004°24'0 0.0
2017-Jan-13 06:33N 51°15' E 004°24'0 0.0
2017-Jan-13 05:33N 51°15' E 004°24'0 0.0
2017-Jan-13 04:33N 51°15' E 004°24'0 0.0
2017-Jan-13 03:33N 51°15' E 004°24'0 0.0
2017-Jan-13 02:33N 51°15' E 004°24'0 0.0
2017-Jan-13 01:33N 51°15' E 004°24'0 0.0
2017-Jan-13 00:33N 51°15' E 004°24'0 0.0
2017-Jan-12 23:33N 51°15' E 004°24'0 0.0
2017-Jan-12 22:33N 51°15' E 004°24'0 0.0
2017-Jan-12 21:33N 51°15' E 004°24'0 0.0
2017-Jan-12 20:33N 51°15' E 004°24'0 0.0
2017-Jan-12 19:33N 51°15' E 004°24'0 0.0
2017-Jan-12 18:33N 51°15' E 004°24'0 0.0
2017-Jan-12 17:33N 51°15' E 004°24'0 0.0
2017-Jan-12 16:33N 51°15' E 004°24'0 0.0
2017-Jan-12 15:33N 51°15' E 004°24'0 0.0
2017-Jan-12 14:33N 51°15' E 004°24'0 0.0
2017-Jan-12 13:33N 51°15' E 004°24'0 0.0
2017-Jan-12 12:33N 51°15' E 004°24'0 0.0
2017-Jan-12 11:33N 51°15' E 004°24'0 0.0
2017-Jan-12 10:33N 51°15' E 004°24'0 0.0
2017-Jan-12 09:33N 51°15' E 004°24'0 0.0
2017-Jan-12 08:33N 51°15' E 004°24'0 0.0
2017-Jan-12 07:33N 51°15' E 004°24'0 0.0
2017-Jan-12 06:33N 51°15' E 004°24'0 0.0
2017-Jan-12 05:33N 51°15' E 004°24'0 0.0
2017-Jan-12 04:33N 51°15' E 004°24'0 0.0
2017-Jan-12 03:33N 51°15' E 004°24'0 0.0
2017-Jan-12 02:33N 51°15' E 004°24'0 0.0
2017-Jan-12 01:33N 51°15' E 004°24'0 0.0
2017-Jan-12 00:33N 51°15' E 004°24'0 0.0
2017-Jan-11 23:33N 51°15' E 004°24'0 0.0
2017-Jan-11 22:33N 51°15' E 004°24'0 0.0
2017-Jan-11 21:33N 51°15' E 004°24'0 0.0
2017-Jan-11 20:33N 51°15' E 004°24'0 0.0
2017-Jan-11 19:33N 51°15' E 004°24'1 1.2
2017-Jan-11 18:33N 51°15' E 004°23'2 2.4
2017-Jan-11 17:34N 51°17' E 004°20'2 1.9
2017-Jan-11 16:33N 51°18' E 004°17'8 7.8
2017-Jan-11 15:29N 51°22' E 004°06'8 7.2
2017-Jan-11 14:24N 51°21' E 003°54'1011.4
2017-Jan-11 13:31N 51°25' E 003°39'9 9.7
2017-Jan-11 12:34N 51°24' E 003°24'1515.2
2017-Jan-11 11:34N 51°23' E 002°59'1313.2
2017-Jan-11 10:33N 51°22' E 002°38'10 9.9
2017-Jan-11 09:33N 51°20' E 002°23'1515.5
2017-Jan-11 08:33N 51°12' E 002°01'1414.3
2017-Jan-11 07:33N 51°04' E 001°42'1312.6
2017-Jan-11 06:32N 50°55' E 001°29'6312.0
2017-Jan-11 01:16N 50°19' E 000°06'1012.8
2017-Jan-11 00:31N 50°14' W 000°06'1313.3
2017-Jan-10 23:33N 50°04' W 000°18'1413.7
2017-Jan-10 22:33N 49°51' W 000°26'1414.1
2017-Jan-10 21:34N 49°37' W 000°20'1313.1
2017-Jan-10 20:33N 49°29' W 000°05'1211.9
2017-Jan-10 19:33N 49°26' E 000°13'1010.3
2017-Jan-10 18:33N 49°29' E 000°28'  
Track history (hours):
 
Tides and Currents Weather Stations Pressure Air Temp Water Temp Dewpoint Dewpoint Depression Visibility Wind Speed Wind Dir Waves Ship Positions

Waf_motion

Last reported at 2017-Jan-20 18:29 UTC. Time now 2017-Jan-24 23:26 UTC.
Position N 28°36' W 013°14'.

Length 140 m; draft 7.5 m.

Type: Ship (hazmat cat A). MMSI: 417222324.

Date/timePositionNaut miles runAvg speedWind from/ knotsBaromVisibWave heightAir tempDewpointWater temp
2017-Jan-20 18:29N 28°36' W 013°14'1414.2
2017-Jan-20 17:30N 28°50' W 013°10'1516.0
2017-Jan-20 16:32N 29°04' W 013°04'  
2017-Jan-16 13:10N 49°46' W 003°32'913.9
2017-Jan-16 12:33N 49°51' W 003°21'5911.6
2017-Jan-16 07:27N 50°10' W 001°54'1314.2
2017-Jan-16 06:33N 50°14' W 001°35'4916.2
2017-Jan-16 03:33N 50°27' W 000°22'1514.9
2017-Jan-16 02:33N 50°30' E 000°01'1413.9
2017-Jan-16 01:33N 50°34' E 000°22'1312.8
2017-Jan-16 00:33N 50°38' E 000°41'1312.7
2017-Jan-15 23:33N 50°45' E 000°58'1413.8
2017-Jan-15 22:33N 50°54' E 001°15'1716.5
2017-Jan-15 21:33N 51°05' E 001°34'1616.1
2017-Jan-15 20:33N 51°17' E 001°51'1211.6
2017-Jan-15 19:33N 51°23' E 002°07'1313.0
2017-Jan-15 18:31N 51°23' E 002°28'1212.4
2017-Jan-15 17:33N 51°22' E 002°47'1212.2
2017-Jan-15 16:33N 51°24' E 003°07'1312.6
2017-Jan-15 15:33N 51°25' E 003°27'10 9.8
2017-Jan-15 14:33N 51°25' E 003°43'9 8.9
2017-Jan-15 13:33N 51°23' E 003°57'7 6.4
2017-Jan-15 12:32N 51°22' E 004°07'8 7.9
2017-Jan-15 11:33N 51°18' E 004°17'2 2.2
2017-Jan-15 10:33N 51°17' E 004°20'1 0.9
2017-Jan-15 09:31N 51°16' E 004°21'0 0.0
2017-Jan-15 08:31N 51°16' E 004°21'0 0.0
2017-Jan-15 07:31N 51°16' E 004°21'0 0.0
2017-Jan-15 06:28N 51°16' E 004°21'0 0.0
2017-Jan-15 05:31N 51°16' E 004°21'0 0.0
2017-Jan-15 04:31N 51°16' E 004°21'0 0.0
2017-Jan-15 03:31N 51°16' E 004°21'0 0.0
2017-Jan-15 02:31N 51°16' E 004°21'0 0.0
2017-Jan-15 01:31N 51°16' E 004°21'0 0.0
2017-Jan-15 00:31N 51°16' E 004°21'0 0.0
2017-Jan-14 23:31N 51°16' E 004°21'0 0.0
2017-Jan-14 22:31N 51°16' E 004°21'0 0.0
2017-Jan-14 21:31N 51°16' E 004°21'0 0.0
2017-Jan-14 20:31N 51°16' E 004°21'0 0.0
2017-Jan-14 19:31N 51°16' E 004°21'0 0.0
2017-Jan-14 18:31N 51°16' E 004°21'0 0.0
2017-Jan-14 17:31N 51°16' E 004°21'0 0.0
2017-Jan-14 16:31N 51°16' E 004°21'0 0.0
2017-Jan-14 15:31N 51°16' E 004°21'0 0.0
2017-Jan-14 14:31N 51°16' E 004°21'0 0.0
2017-Jan-14 13:31N 51°16' E 004°21'0 0.0
2017-Jan-14 12:31N 51°16' E 004°21'0 0.0
2017-Jan-14 11:31N 51°16' E 004°21'0 0.0
2017-Jan-14 10:31N 51°16' E 004°21'0 0.0
2017-Jan-14 09:31N 51°16' E 004°21'0 0.0
2017-Jan-14 08:31N 51°16' E 004°21'0 0.0
2017-Jan-14 07:31N 51°16' E 004°21'0 0.0
2017-Jan-14 06:31N 51°16' E 004°21'0 0.0
2017-Jan-14 05:28N 51°16' E 004°21'0 0.0
2017-Jan-14 04:31N 51°16' E 004°21'0 0.0
2017-Jan-14 03:31N 51°16' E 004°21'0 0.0
2017-Jan-13 23:31N 51°16' E 004°21'0 0.0
2017-Jan-13 22:31N 51°16' E 004°21'0 0.0
2017-Jan-13 21:31N 51°16' E 004°21'0 0.0
2017-Jan-13 20:31N 51°16' E 004°21'0 0.0
2017-Jan-13 19:28N 51°16' E 004°21'0 0.2
2017-Jan-13 18:31N 51°16' E 004°21'1 1.0
2017-Jan-13 17:33N 51°16' E 004°22'2 1.9
2017-Jan-13 16:33N 51°15' E 004°24'0 0.0
2017-Jan-13 15:33N 51°15' E 004°24'0 0.0
2017-Jan-13 14:33N 51°15' E 004°24'0 0.0
2017-Jan-13 13:33N 51°15' E 004°24'0 0.0
2017-Jan-13 12:33N 51°15' E 004°24'0 0.0
2017-Jan-13 11:33N 51°15' E 004°24'0 0.0
2017-Jan-13 10:33N 51°15' E 004°24'0 0.0
2017-Jan-13 09:33N 51°15' E 004°24'0 0.0
2017-Jan-13 08:33N 51°15' E 004°24'0 0.0
2017-Jan-13 07:33N 51°15' E 004°24'0 0.0
2017-Jan-13 06:33N 51°15' E 004°24'0 0.0
2017-Jan-13 05:33N 51°15' E 004°24'0 0.0
2017-Jan-13 04:33N 51°15' E 004°24'0 0.0
2017-Jan-13 03:33N 51°15' E 004°24'0 0.0
2017-Jan-13 02:33N 51°15' E 004°24'0 0.0
2017-Jan-13 01:33N 51°15' E 004°24'0 0.0
2017-Jan-13 00:33N 51°15' E 004°24'0 0.0
2017-Jan-12 23:33N 51°15' E 004°24'0 0.0
2017-Jan-12 22:33N 51°15' E 004°24'0 0.0
2017-Jan-12 21:33N 51°15' E 004°24'0 0.0
2017-Jan-12 20:33N 51°15' E 004°24'0 0.0
2017-Jan-12 19:33N 51°15' E 004°24'0 0.0
2017-Jan-12 18:33N 51°15' E 004°24'0 0.0
2017-Jan-12 17:33N 51°15' E 004°24'0 0.0
2017-Jan-12 16:33N 51°15' E 004°24'0 0.0
2017-Jan-12 15:33N 51°15' E 004°24'0 0.0
2017-Jan-12 14:33N 51°15' E 004°24'0 0.0
2017-Jan-12 13:33N 51°15' E 004°24'0 0.0
2017-Jan-12 12:33N 51°15' E 004°24'0 0.0
2017-Jan-12 11:33N 51°15' E 004°24'0 0.0
2017-Jan-12 10:33N 51°15' E 004°24'0 0.0
2017-Jan-12 09:33N 51°15' E 004°24'0 0.0
2017-Jan-12 08:33N 51°15' E 004°24'0 0.0
2017-Jan-12 07:33N 51°15' E 004°24'0 0.0
2017-Jan-12 06:33N 51°15' E 004°24'0 0.0
2017-Jan-12 05:33N 51°15' E 004°24'0 0.0
2017-Jan-12 04:33N 51°15' E 004°24'0 0.0
2017-Jan-12 03:33N 51°15' E 004°24'0 0.0
2017-Jan-12 02:33N 51°15' E 004°24'0 0.0
2017-Jan-12 01:33N 51°15' E 004°24'0 0.0
2017-Jan-12 00:33N 51°15' E 004°24'0 0.0
2017-Jan-11 23:33N 51°15' E 004°24'0 0.0
2017-Jan-11 22:33N 51°15' E 004°24'0 0.0
2017-Jan-11 21:33N 51°15' E 004°24'0 0.0
2017-Jan-11 20:33N 51°15' E 004°24'0 0.0
2017-Jan-11 19:33N 51°15' E 004°24'1 1.2
2017-Jan-11 18:33N 51°15' E 004°23'2 2.4
2017-Jan-11 17:34N 51°17' E 004°20'2 1.9
2017-Jan-11 16:33N 51°18' E 004°17'8 7.8
2017-Jan-11 15:29N 51°22' E 004°06'8 7.2
2017-Jan-11 14:24N 51°21' E 003°54'1011.4
2017-Jan-11 13:31N 51°25' E 003°39'9 9.7
2017-Jan-11 12:34N 51°24' E 003°24'1515.2
2017-Jan-11 11:34N 51°23' E 002°59'1313.2
2017-Jan-11 10:33N 51°22' E 002°38'10 9.9
2017-Jan-11 09:33N 51°20' E 002°23'1515.5
2017-Jan-11 08:33N 51°12' E 002°01'1414.3
2017-Jan-11 07:33N 51°04' E 001°42'1312.6
2017-Jan-11 06:32N 50°55' E 001°29'6312.0
2017-Jan-11 01:16N 50°19' E 000°06'1012.8
2017-Jan-11 00:31N 50°14' W 000°06'1313.3
2017-Jan-10 23:33N 50°04' W 000°18'1413.7
2017-Jan-10 22:33N 49°51' W 000°26'1414.1
2017-Jan-10 21:34N 49°37' W 000°20'1313.1
2017-Jan-10 20:33N 49°29' W 000°05'1211.9
2017-Jan-10 19:33N 49°26' E 000°13'1010.3
2017-Jan-10 18:33N 49°29' E 000°28'  

Dump ship's entire track history